Terminal Aerodrome Forecast
Issued by NWS

Home | Current Version | Previous Version | Text Only | Print | Product List | Glossary On
Versions: 1 2 3 4 5 6 7 8 9 10 11 12 13 14 15 16 17 18
396
FTUS45 KABQ 041739
TAFSAF
TAF
KSAF 041739Z 0418/0518 22009KT P6SM FEW100
     FM050300 12006KT P6SM FEW120
     FM050900 02007KT P6SM SKC=

USA.gov is the U.S. government's official web portal to all federal, state and local government web resources and services.